Alcasser, Spain
Current Conditions -  °F | °C
As of 11:00 AM on Tuesday 27 Jan 2015 (Local Time) from LEVC Reporting Station
Few Clouds Few Clouds  
Wind Chill: 55°   Ceiling: Unl
Heat Index: 55°   Visibility: 6mi
Dew Point: 37°   Wind: 3mph
Humidity: 51%   Direction: 240°WSW
Pressure: 30.27"   Gusts: NA
Location:  39.37°N, 0.43°W
Report Text: LEVC 271000Z 24003KT 210V280 9999 FEW025 13/03 Q1025 NOSIG
Loading
Personal Weather Stations






























Interactive Weather Map New forecast layout! Learn more

10-Day Weather Forecast

Advertisements
Track Severe Weather on mobile